createdAt,value
2023-03-26T00:01:37.529Z,99834.81
2023-03-26T00:04:06.937Z,99834.56
2023-03-26T00:06:38.943Z,99815.47
2023-03-26T00:09:09.342Z,99814.63
2023-03-26T00:11:36.447Z,99806.56
2023-03-26T00:14:03.756Z,99816.97
2023-03-26T00:16:32.503Z,99810.59
2023-03-26T00:19:01.333Z,99812.19
2023-03-26T00:21:30.348Z,99813.63
2023-03-26T00:24:00.934Z,99814.56
2023-03-26T00:26:29.620Z,99811.94
2023-03-26T00:28:57.851Z,99818.50
2023-03-26T00:31:24.759Z,99817.94
2023-03-26T00:33:56.789Z,99814.47
2023-03-26T00:36:26.832Z,99812.69
2023-03-26T00:38:54.639Z,99814.75
2023-03-26T00:41:26.329Z,99817.56
2023-03-26T00:43:56.740Z,99812.47
2023-03-26T00:46:29.196Z,99808.16
2023-03-26T00:48:59.854Z,99802.44
2023-03-26T00:51:28.705Z,99806.38
2023-03-26T00:53:57.472Z,99800.00
2023-03-26T00:56:25.068Z,99800.94
2023-03-26T00:58:52.137Z,99804.88
2023-03-26T01:01:27.929Z,99792.97
2023-03-26T01:04:08.686Z,99790.50
2023-03-26T01:06:38.892Z,99788.16
2023-03-26T01:09:18.730Z,99782.91
2023-03-26T01:11:45.800Z,99789.13
2023-03-26T01:14:17.358Z,99787.69
2023-03-26T01:16:53.496Z,99790.44
2023-03-26T01:19:42.406Z,99792.09
2023-03-26T01:22:12.036Z,99794.13
2023-03-26T01:24:40.025Z,99801.53
2023-03-26T01:27:51.738Z,99788.84
2023-03-26T01:30:21.623Z,99797.56
2023-03-26T01:33:06.897Z,99794.44
2023-03-26T01:35:52.476Z,99798.38
2023-03-26T01:38:35.607Z,99804.81
2023-03-26T01:41:19.789Z,99796.75
2023-03-26T01:44:09.244Z,99804.03
2023-03-26T01:46:36.561Z,99800.81
2023-03-26T01:49:05.235Z,99804.53
2023-03-26T01:51:34.854Z,99801.59
2023-03-26T01:54:06.008Z,99795.75
2023-03-26T01:57:01.903Z,99794.25
2023-03-26T01:59:50.693Z,99804.34
2023-03-26T02:02:30.943Z,99808.56
2023-03-26T02:05:04.481Z,99802.06
2023-03-26T02:07:40.516Z,99810.59
2023-03-26T02:10:13.857Z,99821.00
2023-03-26T02:12:42.921Z,99816.88
2023-03-26T02:15:11.538Z,99811.88
2023-03-26T02:17:40.432Z,99822.53
2023-03-26T02:20:13.964Z,99824.56
2023-03-26T02:22:45.669Z,99824.38
2023-03-26T02:25:17.948Z,99823.97
2023-03-26T02:27:45.820Z,99825.22
2023-03-26T02:30:25.793Z,99825.13
2023-03-26T02:32:54.310Z,99817.13
2023-03-26T02:35:22.556Z,99817.53
2023-03-26T02:37:51.006Z,99811.91
2023-03-26T02:40:21.232Z,99808.97
2023-03-26T02:42:49.074Z,99808.03
2023-03-26T02:45:16.184Z,99801.09
2023-03-26T02:47:43.433Z,99800.81
2023-03-26T02:50:12.030Z,99792.50
2023-03-26T02:52:39.054Z,99799.31
2023-03-26T02:55:07.371Z,99791.78
2023-03-26T02:57:34.649Z,99793.81
2023-03-26T03:00:04.917Z,99787.66
2023-03-26T03:02:31.718Z,99797.97
2023-03-26T03:05:01.643Z,99806.06
2023-03-26T03:07:29.142Z,99806.34
2023-03-26T03:09:56.201Z,99805.53
2023-03-26T03:12:22.973Z,99803.84
2023-03-26T03:14:50.001Z,99802.69
2023-03-26T03:17:16.820Z,99796.09
2023-03-26T03:19:43.856Z,99796.84
2023-03-26T03:22:10.748Z,99806.44
2023-03-26T03:24:38.714Z,99802.03
2023-03-26T03:27:05.654Z,99790.53
2023-03-26T03:29:34.403Z,99808.47
2023-03-26T03:32:02.193Z,99807.94
2023-03-26T03:34:29.304Z,99802.03
2023-03-26T03:36:56.152Z,99797.13
2023-03-26T03:39:23.251Z,99784.50
2023-03-26T03:41:50.349Z,99798.03
2023-03-26T03:44:17.396Z,99794.47
2023-03-26T03:46:44.230Z,99802.34
2023-03-26T03:49:11.374Z,99818.78
2023-03-26T03:51:38.210Z,99808.75
2023-03-26T03:54:08.519Z,99824.84
2023-03-26T03:56:36.121Z,99820.97
2023-03-26T03:59:03.225Z,99802.81
2023-03-26T04:01:30.838Z,99810.00
2023-03-26T04:03:58.812Z,99809.16
2023-03-26T04:06:25.976Z,99808.44
2023-03-26T04:08:53.054Z,99811.38
2023-03-26T04:11:23.242Z,99811.22
2023-03-26T04:13:50.313Z,99820.78
2023-03-26T04:16:18.253Z,99817.72
2023-03-26T04:18:46.409Z,99815.91
2023-03-26T04:21:16.174Z,99824.81
2023-03-26T04:23:43.348Z,99824.81
2023-03-26T04:26:16.272Z,99824.22
2023-03-26T04:28:53.326Z,99821.09
2023-03-26T04:31:24.343Z,99809.47
2023-03-26T04:33:55.214Z,99818.31
2023-03-26T04:36:32.273Z,99816.69
2023-03-26T04:39:03.225Z,99814.56
2023-03-26T04:41:30.254Z,99808.25
2023-03-26T04:43:57.289Z,99809.66
2023-03-26T04:46:24.346Z,99817.13
2023-03-26T04:48:52.476Z,99824.38
2023-03-26T04:51:22.019Z,99824.06
2023-03-26T04:54:00.345Z,99818.63
2023-03-26T04:56:51.365Z,99826.19
2023-03-26T04:59:26.135Z,99816.78
2023-03-26T05:01:53.793Z,99828.78
2023-03-26T05:04:21.094Z,99829.56
2023-03-26T05:06:48.201Z,99817.41
2023-03-26T05:09:15.735Z,99810.00
2023-03-26T05:11:42.729Z,99820.16
2023-03-26T05:14:09.913Z,99807.47
2023-03-26T05:16:37.549Z,99805.22
2023-03-26T05:19:04.873Z,99818.34
2023-03-26T05:21:31.690Z,99808.03
2023-03-26T05:23:58.801Z,99811.31
2023-03-26T05:26:26.061Z,99806.94
2023-03-26T05:28:53.094Z,99809.50
2023-03-26T05:31:21.375Z,99812.31
2023-03-26T05:33:49.152Z,99807.31
2023-03-26T05:36:17.285Z,99804.59
2023-03-26T05:38:49.335Z,99798.97
2023-03-26T05:41:17.287Z,99810.69
2023-03-26T05:43:49.003Z,99807.44
2023-03-26T05:46:16.430Z,99812.59
2023-03-26T05:48:43.755Z,99810.16
2023-03-26T05:51:10.624Z,99818.09
2023-03-26T05:53:37.729Z,99810.50
2023-03-26T05:56:04.820Z,99808.78
2023-03-26T05:58:33.749Z,99812.13
2023-03-26T06:01:09.459Z,99808.78
2023-03-26T06:03:39.732Z,99810.19
2023-03-26T06:06:15.506Z,99811.88
2023-03-26T06:08:48.864Z,99811.72
2023-03-26T06:11:29.682Z,99804.88
2023-03-26T06:13:56.844Z,99809.97
2023-03-26T06:16:26.957Z,99803.91
2023-03-26T06:18:56.176Z,99801.16
2023-03-26T06:21:23.939Z,99795.78
2023-03-26T06:23:51.806Z,99797.03
2023-03-26T06:26:18.916Z,99797.03
2023-03-26T06:28:46.181Z,99805.78
2023-03-26T06:31:13.072Z,99794.78
2023-03-26T06:33:40.397Z,99797.53
2023-03-26T06:36:07.557Z,99801.22
2023-03-26T06:38:34.774Z,99796.44
2023-03-26T06:41:06.280Z,99798.97
2023-03-26T06:43:33.989Z,99807.19
2023-03-26T06:46:01.673Z,99798.66
2023-03-26T06:48:28.863Z,99804.94
2023-03-26T06:50:55.749Z,99803.47
2023-03-26T06:53:23.154Z,99811.38
2023-03-26T06:55:50.036Z,99809.03
2023-03-26T06:58:17.101Z,99813.22
2023-03-26T07:00:44.017Z,99804.03
2023-03-26T07:03:11.563Z,99808.34
2023-03-26T07:05:41.195Z,99808.84
2023-03-26T07:08:08.257Z,99807.94
2023-03-26T07:10:35.200Z,99792.63
2023-03-26T07:13:02.263Z,99801.34
2023-03-26T07:15:29.489Z,99782.44
2023-03-26T07:17:56.677Z,99785.72
2023-03-26T07:20:23.798Z,99788.22
2023-03-26T07:22:51.572Z,99785.34
2023-03-26T07:25:19.454Z,99783.56
2023-03-26T07:28:04.665Z,99782.25
2023-03-26T07:30:44.163Z,99781.88
2023-03-26T07:33:21.318Z,99774.41
2023-03-26T07:36:17.018Z,99795.00
2023-03-26T07:38:49.993Z,99797.53
2023-03-26T07:41:38.263Z,99798.91
2023-03-26T07:44:20.055Z,99806.00
2023-03-26T07:46:48.108Z,99802.25
2023-03-26T07:49:17.906Z,99788.41
2023-03-26T07:51:44.924Z,99793.09
2023-03-26T07:54:12.293Z,99789.47
2023-03-26T07:56:51.692Z,99790.16
2023-03-26T07:59:24.395Z,99793.16
2023-03-26T08:02:09.850Z,99794.16
2023-03-26T08:04:49.522Z,99799.41
2023-03-26T08:07:34.324Z,99801.53
2023-03-26T08:10:21.114Z,99801.81
2023-03-26T08:13:06.144Z,99805.59
2023-03-26T08:16:08.101Z,99811.13
2023-03-26T08:19:07.974Z,99790.44
2023-03-26T08:21:45.683Z,99798.13
2023-03-26T08:24:43.598Z,99806.81
2023-03-26T08:27:41.452Z,99801.97
2023-03-26T08:30:08.399Z,99797.63
2023-03-26T08:32:35.732Z,99801.13
2023-03-26T08:35:04.041Z,99794.97
2023-03-26T08:37:31.232Z,99792.34
2023-03-26T08:39:58.088Z,99791.41
2023-03-26T08:42:37.168Z,99791.63
2023-03-26T08:45:29.780Z,99784.81
2023-03-26T08:48:18.253Z,99794.03
2023-03-26T08:51:07.849Z,99785.38
2023-03-26T08:54:03.507Z,99787.53
2023-03-26T08:56:42.367Z,99782.25
2023-03-26T08:59:37.273Z,99787.53
2023-03-26T09:02:22.081Z,99780.81
2023-03-26T09:05:11.095Z,99767.66
2023-03-26T09:08:02.157Z,99769.34
2023-03-26T09:10:48.093Z,99768.34
2023-03-26T09:13:45.764Z,99767.28
2023-03-26T09:16:18.611Z,99762.72
2023-03-26T09:19:06.707Z,99767.94
2023-03-26T09:21:54.905Z,99776.97
2023-03-26T09:24:35.513Z,99763.28
2023-03-26T09:27:40.809Z,99756.41
2023-03-26T09:30:28.436Z,99752.88
2023-03-26T09:33:23.178Z,99749.75
2023-03-26T09:35:54.211Z,99753.41
2023-03-26T09:38:33.177Z,99759.97
2023-03-26T09:41:18.261Z,99751.50
2023-03-26T09:44:22.347Z,99751.38
2023-03-26T09:47:12.876Z,99734.38
2023-03-26T09:49:58.435Z,99737.75
2023-03-26T09:53:02.620Z,99725.59
2023-03-26T09:55:42.236Z,99731.59
2023-03-26T09:58:40.849Z,99728.22
2023-03-26T10:01:14.656Z,99723.66
2023-03-26T10:03:57.709Z,99723.06
2023-03-26T10:06:51.710Z,99710.56
2023-03-26T10:09:39.655Z,99696.31
2023-03-26T10:12:09.798Z,99684.69
2023-03-26T10:14:54.849Z,99684.25
2023-03-26T10:17:25.797Z,99682.06
2023-03-26T10:20:04.875Z,99679.16
2023-03-26T10:22:42.456Z,99686.53
2023-03-26T10:25:24.663Z,99672.94
2023-03-26T10:28:20.944Z,99677.56
2023-03-26T10:31:15.342Z,99672.56
2023-03-26T10:33:57.734Z,99671.78
2023-03-26T10:36:34.380Z,99684.19
2023-03-26T10:39:36.759Z,99688.84
2023-03-26T10:42:43.527Z,99693.00
2023-03-26T10:45:47.539Z,99687.19
2023-03-26T10:48:56.609Z,99689.50
2023-03-26T10:51:51.448Z,99660.03
2023-03-26T10:54:27.409Z,99671.34
2023-03-26T10:56:56.065Z,99665.25
2023-03-26T10:59:27.406Z,99662.31
2023-03-26T11:02:16.370Z,99664.22
2023-03-26T11:05:14.315Z,99653.44
2023-03-26T11:07:47.295Z,99638.97
2023-03-26T11:10:25.008Z,99637.44
2023-03-26T11:13:16.059Z,99631.53
2023-03-26T11:16:03.715Z,99628.06
2023-03-26T11:19:08.102Z,99624.53
2023-03-26T11:21:53.813Z,99617.25
2023-03-26T11:24:41.798Z,99614.47
2023-03-26T11:27:35.001Z,99599.00
2023-03-26T11:30:11.173Z,99596.81
2023-03-26T11:32:46.143Z,99588.72
2023-03-26T11:35:39.827Z,99589.84
2023-03-26T11:38:28.967Z,99580.13
2023-03-26T11:40:58.887Z,99577.28
2023-03-26T11:43:35.779Z,99557.13
2023-03-26T11:46:14.516Z,99565.75
2023-03-26T11:48:53.344Z,99563.69
2023-03-26T11:51:36.773Z,99541.38
2023-03-26T11:54:05.666Z,99545.06
2023-03-26T11:56:35.924Z,99536.88
2023-03-26T11:59:09.370Z,99529.69
2023-03-26T12:01:50.736Z,99526.72
2023-03-26T12:04:26.413Z,99526.69
2023-03-26T12:06:59.734Z,99511.19
2023-03-26T12:09:27.008Z,99504.47
2023-03-26T12:12:01.004Z,99499.97
2023-03-26T12:14:32.044Z,99506.31
2023-03-26T12:17:00.874Z,99491.38
2023-03-26T12:19:39.487Z,99490.25
2023-03-26T12:22:26.266Z,99477.56
2023-03-26T12:25:02.567Z,99473.34
2023-03-26T12:27:30.908Z,99457.34
2023-03-26T12:30:25.727Z,99457.25
2023-03-26T12:33:16.450Z,99453.03
2023-03-26T12:35:43.722Z,99446.97
2023-03-26T12:38:23.735Z,99443.38
2023-03-26T12:43:40.481Z,99439.75
2023-03-26T12:44:49.666Z,99424.72
2023-03-26T12:48:01.103Z,99416.97
2023-03-26T12:50:15.311Z,99403.00
2023-03-26T12:52:45.183Z,99414.22
2023-03-26T12:55:38.250Z,99404.06
2023-03-26T12:58:39.539Z,99405.25
2023-03-26T13:01:26.226Z,99401.47
2023-03-26T13:04:14.507Z,99405.03
2023-03-26T13:07:01.487Z,99407.03
2023-03-26T13:10:08.544Z,99404.91
2023-03-26T13:13:08.629Z,99395.06
2023-03-26T13:15:35.336Z,99380.91
2023-03-26T13:18:45.087Z,99384.56
2023-03-26T13:21:35.049Z,99362.09
2023-03-26T13:24:21.546Z,99361.75
2023-03-26T13:27:08.932Z,99350.22
2023-03-26T13:29:43.700Z,99349.63
2023-03-26T13:32:57.373Z,99352.63
2023-03-26T13:35:39.298Z,99350.19
2023-03-26T13:38:29.689Z,99345.88
2023-03-26T13:41:02.720Z,99340.75
2023-03-26T13:43:37.249Z,99340.97
2023-03-26T13:46:16.805Z,99328.19
2023-03-26T13:48:53.043Z,99321.44
2023-03-26T13:51:43.053Z,99309.41
2023-03-26T13:54:30.554Z,99314.25
2023-03-26T13:57:29.452Z,99322.50
2023-03-26T14:00:13.914Z,99310.66
2023-03-26T14:02:43.084Z,99320.59
2023-03-26T14:05:15.241Z,99301.41
2023-03-26T14:07:47.691Z,99299.53
2023-03-26T14:10:23.795Z,99295.16
2023-03-26T14:13:04.477Z,99278.94
2023-03-26T14:15:42.159Z,99282.25
2023-03-26T14:18:50.078Z,99282.41
2023-03-26T14:21:35.725Z,99279.38
2023-03-26T14:24:33.742Z,99278.84
2023-03-26T14:27:45.381Z,99257.91
2023-03-26T14:30:27.176Z,99268.84
2023-03-26T14:33:27.161Z,99269.72
2023-03-26T14:36:30.020Z,99258.78
2023-03-26T14:39:22.583Z,99267.66
2023-03-26T14:41:57.157Z,99250.41
2023-03-26T14:45:05.887Z,99244.94
2023-03-26T14:47:43.927Z,99255.09
2023-03-26T14:50:31.531Z,99252.84
2023-03-26T14:53:01.911Z,99233.97
2023-03-26T14:55:50.808Z,99241.97
2023-03-26T14:58:36.103Z,99240.84
2023-03-26T15:01:22.850Z,99233.81
2023-03-26T15:04:28.457Z,99217.72
2023-03-26T15:07:23.184Z,99198.41
2023-03-26T15:10:18.113Z,99196.16
2023-03-26T15:13:12.564Z,99196.69
2023-03-26T15:15:53.929Z,99193.63
2023-03-26T15:18:55.953Z,99203.22
2023-03-26T15:21:25.791Z,99200.41
2023-03-26T15:24:26.909Z,99191.94
2023-03-26T15:27:17.791Z,99186.22
2023-03-26T15:30:15.161Z,99178.63
2023-03-26T15:33:05.271Z,99175.97
2023-03-26T15:35:41.329Z,99164.19
2023-03-26T15:38:42.880Z,99167.19
2023-03-26T15:41:37.850Z,99163.50
2023-03-26T15:44:23.325Z,99172.72
2023-03-26T15:46:56.318Z,99177.91
2023-03-26T15:49:49.270Z,99160.94
2023-03-26T15:52:33.157Z,99170.28
2023-03-26T15:55:10.637Z,99163.47
2023-03-26T15:58:02.444Z,99164.88
2023-03-26T16:00:35.044Z,99149.59
2023-03-26T16:03:10.935Z,99138.69
2023-03-26T16:05:47.508Z,99147.84
2023-03-26T16:08:24.566Z,99141.56
2023-03-26T16:10:57.307Z,99133.31
2023-03-26T16:13:30.626Z,99128.44
2023-03-26T16:16:04.102Z,99120.22
2023-03-26T16:18:31.118Z,99112.53
2023-03-26T16:21:31.994Z,99112.72
2023-03-26T16:24:02.142Z,99103.94
2023-03-26T16:26:44.590Z,99105.25
2023-03-26T16:29:14.392Z,99092.69
2023-03-26T16:32:09.679Z,99095.81
2023-03-26T16:34:51.053Z,99103.41
2023-03-26T16:37:36.582Z,99100.53
2023-03-26T16:40:20.706Z,99095.31
2023-03-26T16:43:36.194Z,99095.63
2023-03-26T16:46:30.543Z,99102.63
2023-03-26T16:49:21.008Z,99103.91
2023-03-26T16:51:57.157Z,99106.94
2023-03-26T16:54:33.341Z,99111.69
2023-03-26T16:57:26.064Z,99110.44
2023-03-26T17:00:23.527Z,99103.69
2023-03-26T17:03:08.081Z,99100.50
2023-03-26T17:05:51.205Z,99103.75
2023-03-26T17:08:42.664Z,99097.06
2023-03-26T17:11:22.698Z,99108.13
2023-03-26T17:14:12.080Z,99107.06
2023-03-26T17:16:48.694Z,99105.53
2023-03-26T17:19:29.659Z,99104.16
2023-03-26T17:22:11.156Z,99114.25
2023-03-26T17:24:53.139Z,99105.06
2023-03-26T17:27:55.796Z,99104.06
2023-03-26T17:30:22.760Z,99119.47
2023-03-26T17:32:54.306Z,99110.97
2023-03-26T17:35:40.374Z,99112.38
2023-03-26T17:38:17.692Z,99116.97
2023-03-26T17:40:53.051Z,99105.84
2023-03-26T17:43:46.151Z,99109.16
2023-03-26T17:46:33.267Z,99098.31
2023-03-26T17:49:14.769Z,99098.88
2023-03-26T17:52:04.145Z,99101.53
2023-03-26T17:54:41.174Z,99105.34
2023-03-26T17:57:16.701Z,99098.22
2023-03-26T17:59:45.546Z,99105.03
2023-03-26T18:02:30.112Z,99098.38
2023-03-26T18:04:57.639Z,99104.34
2023-03-26T18:08:08.170Z,99107.16
2023-03-26T18:10:52.199Z,99102.97
2023-03-26T18:13:18.976Z,99098.63
2023-03-26T18:16:24.433Z,99099.47
2023-03-26T18:19:00.155Z,99102.28
2023-03-26T18:21:37.535Z,99097.06
2023-03-26T18:24:07.098Z,99094.88
2023-03-26T18:26:39.859Z,99090.00
2023-03-26T18:29:42.913Z,99095.84
2023-03-26T18:32:10.069Z,99085.22
2023-03-26T18:34:50.074Z,99088.84
2023-03-26T18:37:34.391Z,99078.97
2023-03-26T18:40:18.303Z,99073.16
2023-03-26T18:42:52.353Z,99071.34
2023-03-26T18:45:28.983Z,99069.78
2023-03-26T18:47:59.858Z,99065.63
2023-03-26T18:50:36.920Z,99061.31
2023-03-26T18:53:07.039Z,99057.00
2023-03-26T18:55:39.554Z,99048.63
2023-03-26T18:58:32.800Z,99041.94
2023-03-26T19:01:02.309Z,99043.75
2023-03-26T19:03:35.497Z,99037.19
2023-03-26T19:06:08.259Z,99030.50
2023-03-26T19:08:38.929Z,99027.69
2023-03-26T19:11:10.789Z,99026.72
2023-03-26T19:13:41.900Z,99021.84
2023-03-26T19:16:33.914Z,99019.38
2023-03-26T19:19:05.263Z,99024.97
2023-03-26T19:21:34.391Z,99015.63
2023-03-26T19:24:03.734Z,99015.53
2023-03-26T19:26:31.541Z,99007.72
2023-03-26T19:29:00.752Z,99005.88
2023-03-26T19:31:38.792Z,99003.38
2023-03-26T19:34:12.087Z,99001.75
2023-03-26T19:36:58.135Z,99000.06
2023-03-26T19:39:37.341Z,98990.75
2023-03-26T19:42:07.955Z,98984.63
2023-03-26T19:44:42.083Z,98981.44
2023-03-26T19:47:22.040Z,98969.03
2023-03-26T19:49:59.079Z,98971.69
2023-03-26T19:52:33.900Z,98961.66
2023-03-26T19:55:15.533Z,98960.41
2023-03-26T19:57:43.188Z,98946.06
2023-03-26T20:00:14.268Z,98942.13
2023-03-26T20:02:42.354Z,98935.00
2023-03-26T20:05:19.440Z,98925.69
2023-03-26T20:07:46.240Z,98932.94
2023-03-26T20:10:13.417Z,98927.53
2023-03-26T20:12:40.539Z,98917.78
2023-03-26T20:15:19.474Z,98911.16
2023-03-26T20:17:50.002Z,98901.56
2023-03-26T20:20:17.530Z,98902.97
2023-03-26T20:22:46.314Z,98892.00
2023-03-26T20:25:33.874Z,98886.28
2023-03-26T20:28:00.715Z,98883.78
2023-03-26T20:30:37.515Z,98875.53
2023-03-26T20:33:12.090Z,98878.78
2023-03-26T20:35:41.547Z,98880.75
2023-03-26T20:38:09.837Z,98870.78
2023-03-26T20:40:38.554Z,98873.31
2023-03-26T20:43:12.100Z,98869.31
2023-03-26T20:45:39.020Z,98871.41
2023-03-26T20:48:11.990Z,98862.75
2023-03-26T20:51:01.829Z,98851.47
2023-03-26T20:53:30.481Z,98852.56
2023-03-26T20:55:57.830Z,98852.47
2023-03-26T20:58:31.506Z,98854.59
2023-03-26T21:01:02.558Z,98851.13
2023-03-26T21:03:29.636Z,98845.16
2023-03-26T21:06:00.822Z,98854.91
2023-03-26T21:08:34.073Z,98832.66
2023-03-26T21:11:02.221Z,98840.00
2023-03-26T21:13:44.354Z,98846.53
2023-03-26T21:16:13.136Z,98839.16
2023-03-26T21:18:40.217Z,98823.75
2023-03-26T21:21:41.974Z,98819.69
2023-03-26T21:24:21.059Z,98834.91
2023-03-26T21:26:53.061Z,98834.78
2023-03-26T21:29:20.109Z,98850.81
2023-03-26T21:31:47.487Z,98878.09
2023-03-26T21:34:14.465Z,98884.06
2023-03-26T21:36:42.110Z,98880.00
2023-03-26T21:39:10.984Z,98882.38
2023-03-26T21:41:48.537Z,98881.25
2023-03-26T21:44:32.400Z,98881.56
2023-03-26T21:46:59.822Z,98892.53
2023-03-26T21:49:27.128Z,98892.44
2023-03-26T21:51:54.493Z,98889.63
2023-03-26T21:54:27.346Z,98892.16
2023-03-26T21:57:31.183Z,98887.84
2023-03-26T22:00:11.299Z,98883.31
2023-03-26T22:03:04.734Z,98875.38
2023-03-26T22:05:31.644Z,98877.56
2023-03-26T22:08:03.972Z,98872.84
2023-03-26T22:10:32.037Z,98875.47
2023-03-26T22:12:59.536Z,98874.22
2023-03-26T22:15:30.404Z,98862.69
2023-03-26T22:18:04.213Z,98856.88
2023-03-26T22:20:31.256Z,98853.94
2023-03-26T22:22:59.132Z,98849.75
2023-03-26T22:25:25.938Z,98845.44
2023-03-26T22:27:53.904Z,98836.16
2023-03-26T22:30:20.905Z,98830.03
2023-03-26T22:32:48.914Z,98838.34
2023-03-26T22:35:16.617Z,98840.66
2023-03-26T22:37:43.797Z,98840.78
2023-03-26T22:40:13.519Z,98835.56
2023-03-26T22:42:41.499Z,98843.03
2023-03-26T22:45:11.833Z,98841.41
2023-03-26T22:47:38.972Z,98839.75
2023-03-26T22:50:07.724Z,98832.94
2023-03-26T22:52:36.514Z,98829.72
2023-03-26T22:55:04.813Z,98825.78
2023-03-26T22:57:31.964Z,98818.91
2023-03-26T23:00:07.692Z,98811.53
2023-03-26T23:02:34.798Z,98807.28
2023-03-26T23:05:01.734Z,98804.66
2023-03-26T23:07:28.837Z,98793.25
2023-03-26T23:09:55.636Z,98805.22
2023-03-26T23:12:22.909Z,98799.69
2023-03-26T23:14:52.918Z,98800.16
2023-03-26T23:17:20.051Z,98802.84
2023-03-26T23:19:46.903Z,98796.88
2023-03-26T23:22:13.975Z,98791.69
2023-03-26T23:24:40.857Z,98790.81
2023-03-26T23:27:08.605Z,98780.47
2023-03-26T23:29:36.494Z,98780.41
2023-03-26T23:32:03.689Z,98772.75
2023-03-26T23:34:52.138Z,98771.38
2023-03-26T23:37:23.175Z,98773.94
2023-03-26T23:39:53.711Z,98766.59
2023-03-26T23:42:29.290Z,98758.00
2023-03-26T23:44:57.588Z,98758.97
2023-03-26T23:47:24.806Z,98753.56
2023-03-26T23:49:51.661Z,98749.16
2023-03-26T23:52:18.798Z,98745.47
2023-03-26T23:54:45.678Z,98734.72
2023-03-26T23:57:13.831Z,98731.84
2023-03-26T23:59:41.508Z,98735.59
